sensor_id;sensor_type;location;lat;lon;timestamp;P1;durP1;ratioP1;P2;durP2;ratioP2
8964;SDS011;4517;49.020;12.066;2023-11-18T00:02:25;24.13;;;21.67;;
8964;SDS011;4517;49.020;12.066;2023-11-18T00:04:51;26.63;;;23.80;;
8964;SDS011;4517;49.020;12.066;2023-11-18T00:07:17;24.53;;;22.37;;
8964;SDS011;4517;49.020;12.066;2023-11-18T00:09:43;23.77;;;21.53;;
8964;SDS011;4517;49.020;12.066;2023-11-18T00:12:11;48.73;;;22.63;;
8964;SDS011;4517;49.020;12.066;2023-11-18T00:14:37;25.40;;;22.83;;
8964;SDS011;4517;49.020;12.066;2023-11-18T00:17:03;23.73;;;21.53;;
8964;SDS011;4517;49.020;12.066;2023-11-18T00:19:29;24.90;;;22.50;;
8964;SDS011;4517;49.020;12.066;2023-11-18T00:21:55;25.20;;;22.63;;
8964;SDS011;4517;49.020;12.066;2023-11-18T00:24:21;24.50;;;21.80;;
8964;SDS011;4517;49.020;12.066;2023-11-18T00:26:47;24.30;;;21.73;;
8964;SDS011;4517;49.020;12.066;2023-11-18T00:29:13;24.07;;;21.60;;
8964;SDS011;4517;49.020;12.066;2023-11-18T00:31:39;24.53;;;22.20;;
8964;SDS011;4517;49.020;12.066;2023-11-18T00:34:05;24.07;;;21.80;;
8964;SDS011;4517;49.020;12.066;2023-11-18T00:36:31;28.87;;;21.70;;
8964;SDS011;4517;49.020;12.066;2023-11-18T00:38:57;28.97;;;22.30;;
8964;SDS011;4517;49.020;12.066;2023-11-18T00:41:23;23.80;;;21.70;;
8964;SDS011;4517;49.020;12.066;2023-11-18T00:43:49;25.53;;;22.53;;
8964;SDS011;4517;49.020;12.066;2023-11-18T00:46:15;22.23;;;20.07;;
8964;SDS011;4517;49.020;12.066;2023-11-18T00:48:41;23.67;;;21.37;;
8964;SDS011;4517;49.020;12.066;2023-11-18T00:51:07;24.13;;;21.70;;
8964;SDS011;4517;49.020;12.066;2023-11-18T00:53:33;23.20;;;21.00;;
8964;SDS011;4517;49.020;12.066;2023-11-18T00:55:59;25.27;;;22.57;;
8964;SDS011;4517;49.020;12.066;2023-11-18T00:58:26;24.40;;;22.00;;
8964;SDS011;4517;49.020;12.066;2023-11-18T01:00:53;24.77;;;22.33;;
8964;SDS011;4517;49.020;12.066;2023-11-18T01:03:19;23.57;;;21.27;;
8964;SDS011;4517;49.020;12.066;2023-11-18T01:05:45;22.73;;;20.47;;
8964;SDS011;4517;49.020;12.066;2023-11-18T01:08:11;23.80;;;21.50;;
8964;SDS011;4517;49.020;12.066;2023-11-18T01:10:38;23.80;;;21.83;;
8964;SDS011;4517;49.020;12.066;2023-11-18T01:13:04;25.50;;;21.50;;
8964;SDS011;4517;49.020;12.066;2023-11-18T01:15:30;24.27;;;21.87;;
8964;SDS011;4517;49.020;12.066;2023-11-18T01:17:57;22.50;;;20.50;;
8964;SDS011;4517;49.020;12.066;2023-11-18T01:20:23;23.87;;;21.63;;
8964;SDS011;4517;49.020;12.066;2023-11-18T01:22:49;24.83;;;22.43;;
8964;SDS011;4517;49.020;12.066;2023-11-18T01:25:15;22.03;;;20.10;;
8964;SDS011;4517;49.020;12.066;2023-11-18T01:27:44;23.60;;;21.53;;
8964;SDS011;4517;49.020;12.066;2023-11-18T01:30:13;21.93;;;20.00;;
8964;SDS011;4517;49.020;12.066;2023-11-18T01:32:40;22.07;;;20.13;;
8964;SDS011;4517;49.020;12.066;2023-11-18T01:35:06;21.20;;;19.50;;
8964;SDS011;4517;49.020;12.066;2023-11-18T01:37:33;22.43;;;20.50;;
8964;SDS011;4517;49.020;12.066;2023-11-18T01:39:59;23.47;;;21.27;;
8964;SDS011;4517;49.020;12.066;2023-11-18T01:42:29;21.60;;;19.40;;
8964;SDS011;4517;49.020;12.066;2023-11-18T01:44:56;21.67;;;19.73;;
8964;SDS011;4517;49.020;12.066;2023-11-18T01:47:24;21.10;;;19.07;;
8964;SDS011;4517;49.020;12.066;2023-11-18T01:49:51;21.90;;;19.93;;
8964;SDS011;4517;49.020;12.066;2023-11-18T01:52:17;23.33;;;21.30;;
8964;SDS011;4517;49.020;12.066;2023-11-18T01:54:43;21.67;;;19.70;;
8964;SDS011;4517;49.020;12.066;2023-11-18T01:57:09;22.27;;;20.23;;
8964;SDS011;4517;49.020;12.066;2023-11-18T01:59:36;22.37;;;20.30;;
8964;SDS011;4517;49.020;12.066;2023-11-18T02:02:03;22.83;;;20.67;;
8964;SDS011;4517;49.020;12.066;2023-11-18T02:04:30;21.30;;;19.50;;
8964;SDS011;4517;49.020;12.066;2023-11-18T02:06:56;21.67;;;19.67;;
8964;SDS011;4517;49.020;12.066;2023-11-18T02:09:22;21.13;;;19.23;;
8964;SDS011;4517;49.020;12.066;2023-11-18T02:11:55;22.00;;;20.07;;
8964;SDS011;4517;49.020;12.066;2023-11-18T02:14:22;22.97;;;20.90;;
8964;SDS011;4517;49.020;12.066;2023-11-18T02:16:51;22.80;;;20.60;;
8964;SDS011;4517;49.020;12.066;2023-11-18T02:19:23;21.87;;;19.60;;
8964;SDS011;4517;49.020;12.066;2023-11-18T02:21:49;22.07;;;20.27;;
8964;SDS011;4517;49.020;12.066;2023-11-18T02:24:29;22.73;;;20.53;;
8964;SDS011;4517;49.020;12.066;2023-11-18T02:27:06;21.33;;;19.50;;
8964;SDS011;4517;49.020;12.066;2023-11-18T02:29:41;20.70;;;18.80;;
8964;SDS011;4517;49.020;12.066;2023-11-18T02:32:23;22.37;;;20.13;;
8964;SDS011;4517;49.020;12.066;2023-11-18T02:35:05;21.13;;;18.83;;
8964;SDS011;4517;49.020;12.066;2023-11-18T02:37:35;19.67;;;18.07;;
8964;SDS011;4517;49.020;12.066;2023-11-18T02:40:04;21.17;;;19.37;;
8964;SDS011;4517;49.020;12.066;2023-11-18T02:42:34;21.00;;;19.10;;
8964;SDS011;4517;49.020;12.066;2023-11-18T02:45:00;20.53;;;18.70;;
8964;SDS011;4517;49.020;12.066;2023-11-18T02:47:27;21.63;;;19.83;;
8964;SDS011;4517;49.020;12.066;2023-11-18T02:49:54;19.60;;;17.90;;
8964;SDS011;4517;49.020;12.066;2023-11-18T02:52:31;21.37;;;19.10;;
8964;SDS011;4517;49.020;12.066;2023-11-18T02:55:00;19.63;;;17.83;;
8964;SDS011;4517;49.020;12.066;2023-11-18T02:57:26;23.80;;;18.70;;
8964;SDS011;4517;49.020;12.066;2023-11-18T02:59:52;19.60;;;18.00;;
8964;SDS011;4517;49.020;12.066;2023-11-18T03:02:19;20.17;;;18.47;;
8964;SDS011;4517;49.020;12.066;2023-11-18T03:04:46;23.50;;;18.73;;
8964;SDS011;4517;49.020;12.066;2023-11-18T03:07:12;20.87;;;18.77;;
8964;SDS011;4517;49.020;12.066;2023-11-18T03:09:38;21.07;;;18.93;;
8964;SDS011;4517;49.020;12.066;2023-11-18T03:12:05;20.17;;;18.47;;
8964;SDS011;4517;49.020;12.066;2023-11-18T03:14:32;19.53;;;17.83;;
8964;SDS011;4517;49.020;12.066;2023-11-18T03:16:59;20.07;;;18.37;;
8964;SDS011;4517;49.020;12.066;2023-11-18T03:19:25;20.17;;;18.10;;
8964;SDS011;4517;49.020;12.066;2023-11-18T03:21:51;21.53;;;19.53;;
8964;SDS011;4517;49.020;12.066;2023-11-18T03:24:21;21.00;;;19.00;;
8964;SDS011;4517;49.020;12.066;2023-11-18T03:26:47;19.73;;;18.03;;
8964;SDS011;4517;49.020;12.066;2023-11-18T03:29:14;21.27;;;19.37;;
8964;SDS011;4517;49.020;12.066;2023-11-18T03:31:40;19.13;;;17.73;;
8964;SDS011;4517;49.020;12.066;2023-11-18T03:34:09;19.93;;;18.23;;
8964;SDS011;4517;49.020;12.066;2023-11-18T03:36:35;19.20;;;17.70;;
8964;SDS011;4517;49.020;12.066;2023-11-18T03:39:01;19.83;;;18.10;;
8964;SDS011;4517;49.020;12.066;2023-11-18T03:41:28;19.60;;;17.70;;
8964;SDS011;4517;49.020;12.066;2023-11-18T03:43:55;18.47;;;17.00;;
8964;SDS011;4517;49.020;12.066;2023-11-18T03:46:21;19.07;;;17.60;;
8964;SDS011;4517;49.020;12.066;2023-11-18T03:48:47;20.27;;;18.27;;
8964;SDS011;4517;49.020;12.066;2023-11-18T03:51:13;20.00;;;18.20;;
8964;SDS011;4517;49.020;12.066;2023-11-18T03:53:42;18.90;;;17.30;;
8964;SDS011;4517;49.020;12.066;2023-11-18T03:56:08;19.63;;;18.07;;
8964;SDS011;4517;49.020;12.066;2023-11-18T03:58:34;19.33;;;17.70;;
8964;SDS011;4517;49.020;12.066;2023-11-18T04:01:01;20.20;;;18.70;;
8964;SDS011;4517;49.020;12.066;2023-11-18T04:03:27;20.30;;;18.47;;
8964;SDS011;4517;49.020;12.066;2023-11-18T04:05:52;19.73;;;17.93;;
8964;SDS011;4517;49.020;12.066;2023-11-18T04:08:18;20.17;;;18.47;;
8964;SDS011;4517;49.020;12.066;2023-11-18T04:10:44;20.90;;;18.90;;
8964;SDS011;4517;49.020;12.066;2023-11-18T04:13:10;26.33;;;18.60;;
8964;SDS011;4517;49.020;12.066;2023-11-18T04:15:37;19.20;;;17.30;;
8964;SDS011;4517;49.020;12.066;2023-11-18T04:18:03;20.03;;;18.10;;
8964;SDS011;4517;49.020;12.066;2023-11-18T04:20:31;20.83;;;18.70;;
8964;SDS011;4517;49.020;12.066;2023-11-18T04:22:57;19.13;;;17.70;;
8964;SDS011;4517;49.020;12.066;2023-11-18T04:25:23;20.70;;;19.00;;
8964;SDS011;4517;49.020;12.066;2023-11-18T04:27:50;20.93;;;18.73;;
8964;SDS011;4517;49.020;12.066;2023-11-18T04:30:16;21.17;;;19.17;;
8964;SDS011;4517;49.020;12.066;2023-11-18T04:32:42;19.30;;;17.60;;
8964;SDS011;4517;49.020;12.066;2023-11-18T04:35:08;19.60;;;17.90;;
8964;SDS011;4517;49.020;12.066;2023-11-18T04:37:35;19.23;;;17.73;;
8964;SDS011;4517;49.020;12.066;2023-11-18T04:40:01;20.20;;;18.57;;
8964;SDS011;4517;49.020;12.066;2023-11-18T04:42:28;19.07;;;17.17;;
8964;SDS011;4517;49.020;12.066;2023-11-18T04:44:55;19.23;;;17.27;;
8964;SDS011;4517;49.020;12.066;2023-11-18T04:47:21;20.33;;;18.60;;
8964;SDS011;4517;49.020;12.066;2023-11-18T04:49:47;20.20;;;18.07;;
8964;SDS011;4517;49.020;12.066;2023-11-18T04:52:13;20.57;;;18.77;;
8964;SDS011;4517;49.020;12.066;2023-11-18T04:54:39;20.43;;;18.23;;
8964;SDS011;4517;49.020;12.066;2023-11-18T04:57:05;20.30;;;18.70;;
8964;SDS011;4517;49.020;12.066;2023-11-18T04:59:33;23.37;;;21.00;;
8964;SDS011;4517;49.020;12.066;2023-11-18T05:01:59;20.60;;;18.70;;
8964;SDS011;4517;49.020;12.066;2023-11-18T05:04:27;25.20;;;20.20;;
8964;SDS011;4517;49.020;12.066;2023-11-18T05:06:53;22.20;;;20.30;;
8964;SDS011;4517;49.020;12.066;2023-11-18T05:09:20;21.47;;;19.47;;
8964;SDS011;4517;49.020;12.066;2023-11-18T05:11:46;21.83;;;19.87;;
8964;SDS011;4517;49.020;12.066;2023-11-18T05:14:11;20.80;;;18.93;;
8964;SDS011;4517;49.020;12.066;2023-11-18T05:16:37;22.33;;;20.23;;
8964;SDS011;4517;49.020;12.066;2023-11-18T05:19:04;23.00;;;20.33;;
8964;SDS011;4517;49.020;12.066;2023-11-18T05:21:30;19.47;;;17.77;;
8964;SDS011;4517;49.020;12.066;2023-11-18T05:23:56;21.90;;;19.90;;
8964;SDS011;4517;49.020;12.066;2023-11-18T05:26:22;21.20;;;19.50;;
8964;SDS011;4517;49.020;12.066;2023-11-18T05:28:48;21.87;;;19.97;;
8964;SDS011;4517;49.020;12.066;2023-11-18T05:31:15;21.27;;;19.30;;
8964;SDS011;4517;49.020;12.066;2023-11-18T05:33:41;20.30;;;18.60;;
8964;SDS011;4517;49.020;12.066;2023-11-18T05:36:07;22.30;;;20.40;;
8964;SDS011;4517;49.020;12.066;2023-11-18T05:38:33;21.03;;;19.17;;
8964;SDS011;4517;49.020;12.066;2023-11-18T05:41:00;19.83;;;18.13;;
8964;SDS011;4517;49.020;12.066;2023-11-18T05:43:29;19.63;;;18.03;;
8964;SDS011;4517;49.020;12.066;2023-11-18T05:46:01;20.07;;;18.07;;
8964;SDS011;4517;49.020;12.066;2023-11-18T05:48:53;22.70;;;18.53;;
8964;SDS011;4517;49.020;12.066;2023-11-18T05:51:23;20.80;;;18.80;;
8964;SDS011;4517;49.020;12.066;2023-11-18T05:53:50;20.03;;;18.30;;
8964;SDS011;4517;49.020;12.066;2023-11-18T05:56:16;21.50;;;19.57;;
8964;SDS011;4517;49.020;12.066;2023-11-18T05:58:43;20.93;;;18.93;;
8964;SDS011;4517;49.020;12.066;2023-11-18T06:01:09;20.43;;;18.63;;
8964;SDS011;4517;49.020;12.066;2023-11-18T06:03:36;20.50;;;18.57;;
8964;SDS011;4517;49.020;12.066;2023-11-18T06:06:06;19.90;;;18.20;;
8964;SDS011;4517;49.020;12.066;2023-11-18T06:08:33;21.53;;;19.67;;
8964;SDS011;4517;49.020;12.066;2023-11-18T06:10:59;19.77;;;18.13;;
8964;SDS011;4517;49.020;12.066;2023-11-18T06:13:30;18.93;;;17.33;;
8964;SDS011;4517;49.020;12.066;2023-11-18T06:15:56;21.63;;;19.73;;
8964;SDS011;4517;49.020;12.066;2023-11-18T06:18:24;20.87;;;19.03;;
8964;SDS011;4517;49.020;12.066;2023-11-18T06:20:50;27.83;;;19.50;;
8964;SDS011;4517;49.020;12.066;2023-11-18T06:23:15;21.83;;;19.60;;
8964;SDS011;4517;49.020;12.066;2023-11-18T06:25:44;22.17;;;20.03;;
8964;SDS011;4517;49.020;12.066;2023-11-18T06:28:11;22.53;;;20.53;;
8964;SDS011;4517;49.020;12.066;2023-11-18T06:30:37;22.00;;;20.17;;
8964;SDS011;4517;49.020;12.066;2023-11-18T06:33:03;22.87;;;20.57;;
8964;SDS011;4517;49.020;12.066;2023-11-18T06:35:29;22.37;;;20.13;;
8964;SDS011;4517;49.020;12.066;2023-11-18T06:37:55;24.57;;;22.27;;
8964;SDS011;4517;49.020;12.066;2023-11-18T06:40:23;22.60;;;20.60;;
8964;SDS011;4517;49.020;12.066;2023-11-18T06:42:52;22.93;;;20.70;;
8964;SDS011;4517;49.020;12.066;2023-11-18T06:45:19;22.10;;;20.10;;
8964;SDS011;4517;49.020;12.066;2023-11-18T06:47:47;24.10;;;21.70;;
8964;SDS011;4517;49.020;12.066;2023-11-18T06:50:14;23.47;;;20.73;;
8964;SDS011;4517;49.020;12.066;2023-11-18T06:52:40;31.43;;;28.57;;
8964;SDS011;4517;49.020;12.066;2023-11-18T06:55:07;24.80;;;22.60;;
8964;SDS011;4517;49.020;12.066;2023-11-18T06:57:33;24.40;;;22.07;;
8964;SDS011;4517;49.020;12.066;2023-11-18T06:59:59;23.13;;;21.00;;
8964;SDS011;4517;49.020;12.066;2023-11-18T07:02:25;24.33;;;22.10;;
8964;SDS011;4517;49.020;12.066;2023-11-18T07:04:51;23.53;;;21.30;;
8964;SDS011;4517;49.020;12.066;2023-11-18T07:07:17;26.47;;;23.90;;
8964;SDS011;4517;49.020;12.066;2023-11-18T07:09:43;25.57;;;22.97;;
8964;SDS011;4517;49.020;12.066;2023-11-18T07:12:09;29.00;;;26.43;;
8964;SDS011;4517;49.020;12.066;2023-11-18T07:14:35;24.30;;;22.20;;
8964;SDS011;4517;49.020;12.066;2023-11-18T07:17:02;23.73;;;21.43;;
8964;SDS011;4517;49.020;12.066;2023-11-18T07:19:29;25.47;;;23.17;;
8964;SDS011;4517;49.020;12.066;2023-11-18T07:21:58;25.27;;;22.50;;
8964;SDS011;4517;49.020;12.066;2023-11-18T07:24:24;22.47;;;20.57;;
8964;SDS011;4517;49.020;12.066;2023-11-18T07:26:50;24.20;;;21.80;;
8964;SDS011;4517;49.020;12.066;2023-11-18T07:29:16;24.47;;;22.10;;
8964;SDS011;4517;49.020;12.066;2023-11-18T07:31:42;23.97;;;21.53;;
8964;SDS011;4517;49.020;12.066;2023-11-18T07:34:10;23.83;;;21.43;;
8964;SDS011;4517;49.020;12.066;2023-11-18T07:36:36;23.67;;;21.73;;
8964;SDS011;4517;49.020;12.066;2023-11-18T07:39:02;22.47;;;20.63;;
8964;SDS011;4517;49.020;12.066;2023-11-18T07:41:28;22.57;;;20.77;;
8964;SDS011;4517;49.020;12.066;2023-11-18T07:43:56;20.00;;;18.20;;
8964;SDS011;4517;49.020;12.066;2023-11-18T07:46:22;19.70;;;18.00;;
8964;SDS011;4517;49.020;12.066;2023-11-18T07:48:51;22.70;;;20.63;;
8964;SDS011;4517;49.020;12.066;2023-11-18T07:51:18;20.13;;;18.20;;
8964;SDS011;4517;49.020;12.066;2023-11-18T07:53:46;20.57;;;18.97;;
8964;SDS011;4517;49.020;12.066;2023-11-18T07:56:12;19.27;;;17.57;;
8964;SDS011;4517;49.020;12.066;2023-11-18T07:58:39;20.07;;;17.97;;
8964;SDS011;4517;49.020;12.066;2023-11-18T08:01:10;20.00;;;18.10;;
8964;SDS011;4517;49.020;12.066;2023-11-18T08:03:36;18.83;;;17.43;;
8964;SDS011;4517;49.020;12.066;2023-11-18T08:06:03;18.00;;;16.50;;
8964;SDS011;4517;49.020;12.066;2023-11-18T08:08:31;19.57;;;17.67;;
8964;SDS011;4517;49.020;12.066;2023-11-18T08:10:57;18.30;;;16.70;;
8964;SDS011;4517;49.020;12.066;2023-11-18T08:13:24;17.37;;;15.83;;
8964;SDS011;4517;49.020;12.066;2023-11-18T08:15:51;17.43;;;16.03;;
8964;SDS011;4517;49.020;12.066;2023-11-18T08:18:17;18.50;;;17.00;;
8964;SDS011;4517;49.020;12.066;2023-11-18T08:20:43;17.83;;;16.40;;
8964;SDS011;4517;49.020;12.066;2023-11-18T08:23:09;18.03;;;16.53;;
8964;SDS011;4517;49.020;12.066;2023-11-18T08:25:35;16.97;;;15.50;;
8964;SDS011;4517;49.020;12.066;2023-11-18T08:28:02;17.77;;;16.20;;
8964;SDS011;4517;49.020;12.066;2023-11-18T08:30:32;17.27;;;15.70;;
8964;SDS011;4517;49.020;12.066;2023-11-18T08:32:58;19.70;;;17.03;;
8964;SDS011;4517;49.020;12.066;2023-11-18T08:35:24;18.73;;;17.03;;
8964;SDS011;4517;49.020;12.066;2023-11-18T08:37:50;18.03;;;16.53;;
8964;SDS011;4517;49.020;12.066;2023-11-18T08:40:17;20.30;;;18.07;;
8964;SDS011;4517;49.020;12.066;2023-11-18T08:42:50;19.10;;;17.47;;
8964;SDS011;4517;49.020;12.066;2023-11-18T08:45:16;28.67;;;26.63;;
8964;SDS011;4517;49.020;12.066;2023-11-18T08:47:43;22.67;;;20.57;;
8964;SDS011;4517;49.020;12.066;2023-11-18T08:50:09;18.97;;;17.10;;
8964;SDS011;4517;49.020;12.066;2023-11-18T08:52:37;19.57;;;17.60;;
8964;SDS011;4517;49.020;12.066;2023-11-18T08:55:08;18.30;;;16.87;;
8964;SDS011;4517;49.020;12.066;2023-11-18T08:57:38;19.23;;;17.50;;
8964;SDS011;4517;49.020;12.066;2023-11-18T09:00:17;18.80;;;17.20;;
8964;SDS011;4517;49.020;12.066;2023-11-18T09:03:06;18.03;;;16.43;;
8964;SDS011;4517;49.020;12.066;2023-11-18T09:05:32;17.80;;;16.13;;
8964;SDS011;4517;49.020;12.066;2023-11-18T09:08:00;19.37;;;17.67;;
8964;SDS011;4517;49.020;12.066;2023-11-18T09:10:27;24.03;;;16.50;;
8964;SDS011;4517;49.020;12.066;2023-11-18T09:12:54;18.00;;;16.20;;
8964;SDS011;4517;49.020;12.066;2023-11-18T09:15:20;18.83;;;17.37;;
8964;SDS011;4517;49.020;12.066;2023-11-18T09:17:50;19.20;;;17.40;;
8964;SDS011;4517;49.020;12.066;2023-11-18T09:20:17;19.03;;;17.33;;
8964;SDS011;4517;49.020;12.066;2023-11-18T09:22:47;18.03;;;16.17;;
8964;SDS011;4517;49.020;12.066;2023-11-18T09:25:13;21.03;;;16.87;;
8964;SDS011;4517;49.020;12.066;2023-11-18T09:27:39;18.60;;;16.90;;
8964;SDS011;4517;49.020;12.066;2023-11-18T09:30:06;18.77;;;16.97;;
8964;SDS011;4517;49.020;12.066;2023-11-18T09:32:41;17.97;;;16.07;;
8964;SDS011;4517;49.020;12.066;2023-11-18T09:35:08;18.40;;;16.90;;
8964;SDS011;4517;49.020;12.066;2023-11-18T09:37:34;20.03;;;17.80;;
8964;SDS011;4517;49.020;12.066;2023-11-18T09:40:01;21.00;;;17.03;;
8964;SDS011;4517;49.020;12.066;2023-11-18T09:42:36;18.93;;;17.30;;
8964;SDS011;4517;49.020;12.066;2023-11-18T09:45:04;19.57;;;17.73;;
8964;SDS011;4517;49.020;12.066;2023-11-18T09:47:31;18.17;;;16.50;;
8964;SDS011;4517;49.020;12.066;2023-11-18T09:49:58;19.07;;;17.40;;
8964;SDS011;4517;49.020;12.066;2023-11-18T09:52:26;18.70;;;17.20;;
8964;SDS011;4517;49.020;12.066;2023-11-18T09:57:32;18.10;;;16.30;;
8964;SDS011;4517;49.020;12.066;2023-11-18T10:00:06;19.00;;;17.30;;
8964;SDS011;4517;49.020;12.066;2023-11-18T10:03:05;19.37;;;17.63;;
8964;SDS011;4517;49.020;12.066;2023-11-18T10:05:33;18.47;;;16.97;;
8964;SDS011;4517;49.020;12.066;2023-11-18T10:08:01;18.57;;;16.87;;
8964;SDS011;4517;49.020;12.066;2023-11-18T10:10:30;17.80;;;16.17;;
8964;SDS011;4517;49.020;12.066;2023-11-18T10:13:03;16.97;;;15.67;;
8964;SDS011;4517;49.020;12.066;2023-11-18T10:15:33;18.17;;;16.60;;
8964;SDS011;4517;49.020;12.066;2023-11-18T10:17:59;19.07;;;17.43;;
8964;SDS011;4517;49.020;12.066;2023-11-18T10:20:47;18.70;;;17.00;;
8964;SDS011;4517;49.020;12.066;2023-11-18T10:23:13;19.27;;;17.37;;
8964;SDS011;4517;49.020;12.066;2023-11-18T10:25:51;18.97;;;17.10;;
8964;SDS011;4517;49.020;12.066;2023-11-18T10:28:22;17.00;;;15.47;;
8964;SDS011;4517;49.020;12.066;2023-11-18T10:30:48;17.83;;;16.03;;
8964;SDS011;4517;49.020;12.066;2023-11-18T10:33:15;20.00;;;16.60;;
8964;SDS011;4517;49.020;12.066;2023-11-18T10:35:48;18.70;;;17.30;;
8964;SDS011;4517;49.020;12.066;2023-11-18T10:38:18;17.93;;;16.43;;
8964;SDS011;4517;49.020;12.066;2023-11-18T10:40:44;17.50;;;15.90;;
8964;SDS011;4517;49.020;12.066;2023-11-18T10:43:10;18.70;;;16.90;;
8964;SDS011;4517;49.020;12.066;2023-11-18T10:45:36;18.67;;;16.90;;
8964;SDS011;4517;49.020;12.066;2023-11-18T10:48:05;16.80;;;15.30;;
8964;SDS011;4517;49.020;12.066;2023-11-18T10:50:32;17.47;;;16.00;;
8964;SDS011;4517;49.020;12.066;2023-11-18T10:52:59;17.27;;;16.00;;
8964;SDS011;4517;49.020;12.066;2023-11-18T10:55:38;18.03;;;16.27;;
8964;SDS011;4517;49.020;12.066;2023-11-18T10:58:05;18.70;;;16.90;;
8964;SDS011;4517;49.020;12.066;2023-11-18T11:00:51;18.50;;;16.73;;
8964;SDS011;4517;49.020;12.066;2023-11-18T11:03:20;18.13;;;16.53;;
8964;SDS011;4517;49.020;12.066;2023-11-18T11:05:48;20.13;;;18.20;;
8964;SDS011;4517;49.020;12.066;2023-11-18T11:08:14;19.17;;;17.57;;
8964;SDS011;4517;49.020;12.066;2023-11-18T11:10:43;22.33;;;19.97;;
8964;SDS011;4517;49.020;12.066;2023-11-18T11:13:10;18.90;;;17.20;;
8964;SDS011;4517;49.020;12.066;2023-11-18T11:15:40;19.57;;;17.83;;
8964;SDS011;4517;49.020;12.066;2023-11-18T11:18:08;20.97;;;18.80;;
8964;SDS011;4517;49.020;12.066;2023-11-18T11:20:34;19.33;;;17.70;;
8964;SDS011;4517;49.020;12.066;2023-11-18T11:26:01;20.27;;;18.43;;
8964;SDS011;4517;49.020;12.066;2023-11-18T11:28:37;18.33;;;16.83;;
8964;SDS011;4517;49.020;12.066;2023-11-18T11:31:20;21.17;;;17.83;;
8964;SDS011;4517;49.020;12.066;2023-11-18T11:33:55;19.17;;;17.67;;
8964;SDS011;4517;49.020;12.066;2023-11-18T11:36:25;19.43;;;17.70;;
8964;SDS011;4517;49.020;12.066;2023-11-18T11:38:56;20.30;;;18.20;;
8964;SDS011;4517;49.020;12.066;2023-11-18T11:41:23;20.77;;;18.83;;
8964;SDS011;4517;49.020;12.066;2023-11-18T11:43:52;19.00;;;17.50;;
8964;SDS011;4517;49.020;12.066;2023-11-18T11:46:20;19.90;;;18.20;;
8964;SDS011;4517;49.020;12.066;2023-11-18T11:48:49;20.93;;;18.80;;
8964;SDS011;4517;49.020;12.066;2023-11-18T11:51:24;20.37;;;18.57;;
8964;SDS011;4517;49.020;12.066;2023-11-18T11:53:59;19.43;;;17.70;;
8964;SDS011;4517;49.020;12.066;2023-11-18T11:56:42;19.50;;;17.77;;
8964;SDS011;4517;49.020;12.066;2023-11-18T11:59:08;19.07;;;17.27;;
8964;SDS011;4517;49.020;12.066;2023-11-18T12:01:37;21.20;;;19.03;;
8964;SDS011;4517;49.020;12.066;2023-11-18T12:04:25;19.97;;;18.37;;
8964;SDS011;4517;49.020;12.066;2023-11-18T12:06:53;19.80;;;17.83;;
8964;SDS011;4517;49.020;12.066;2023-11-18T12:09:21;18.80;;;17.00;;
8964;SDS011;4517;49.020;12.066;2023-11-18T12:11:47;19.93;;;17.83;;
8964;SDS011;4517;49.020;12.066;2023-11-18T12:14:16;20.53;;;18.80;;
8964;SDS011;4517;49.020;12.066;2023-11-18T12:16:58;24.40;;;21.33;;
8964;SDS011;4517;49.020;12.066;2023-11-18T12:19:29;19.20;;;17.60;;
8964;SDS011;4517;49.020;12.066;2023-11-18T12:22:01;18.83;;;17.17;;
8964;SDS011;4517;49.020;12.066;2023-11-18T12:24:37;19.60;;;17.80;;
8964;SDS011;4517;49.020;12.066;2023-11-18T12:27:04;19.33;;;17.57;;
8964;SDS011;4517;49.020;12.066;2023-11-18T12:29:43;18.00;;;16.50;;
8964;SDS011;4517;49.020;12.066;2023-11-18T12:32:09;18.03;;;16.43;;
8964;SDS011;4517;49.020;12.066;2023-11-18T12:34:51;18.47;;;16.60;;
8964;SDS011;4517;49.020;12.066;2023-11-18T12:42:51;20.33;;;17.43;;
8964;SDS011;4517;49.020;12.066;2023-11-18T12:45:36;18.20;;;16.80;;
8964;SDS011;4517;49.020;12.066;2023-11-18T12:48:08;21.13;;;19.23;;
8964;SDS011;4517;49.020;12.066;2023-11-18T12:50:40;18.23;;;16.53;;
8964;SDS011;4517;49.020;12.066;2023-11-18T12:53:09;19.23;;;17.20;;
8964;SDS011;4517;49.020;12.066;2023-11-18T12:55:35;18.10;;;16.70;;
8964;SDS011;4517;49.020;12.066;2023-11-18T12:58:01;17.97;;;16.30;;
8964;SDS011;4517;49.020;12.066;2023-11-18T13:00:30;17.50;;;16.20;;
8964;SDS011;4517;49.020;12.066;2023-11-18T13:02:59;17.53;;;15.97;;
8964;SDS011;4517;49.020;12.066;2023-11-18T13:05:25;17.63;;;16.20;;
8964;SDS011;4517;49.020;12.066;2023-11-18T13:07:57;17.77;;;16.33;;
8964;SDS011;4517;49.020;12.066;2023-11-18T13:10:24;18.00;;;16.50;;
8964;SDS011;4517;49.020;12.066;2023-11-18T13:12:52;17.87;;;16.43;;
8964;SDS011;4517;49.020;12.066;2023-11-18T13:15:18;17.70;;;16.40;;
8964;SDS011;4517;49.020;12.066;2023-11-18T13:18:03;17.30;;;15.77;;
8964;SDS011;4517;49.020;12.066;2023-11-18T13:20:34;17.23;;;15.70;;
8964;SDS011;4517;49.020;12.066;2023-11-18T13:23:01;19.10;;;17.10;;
8964;SDS011;4517;49.020;12.066;2023-11-18T13:25:33;18.57;;;16.63;;
8964;SDS011;4517;49.020;12.066;2023-11-18T13:27:59;18.87;;;17.07;;
8964;SDS011;4517;49.020;12.066;2023-11-18T13:30:26;19.33;;;17.37;;
8964;SDS011;4517;49.020;12.066;2023-11-18T13:32:54;18.50;;;17.10;;
8964;SDS011;4517;49.020;12.066;2023-11-18T13:35:21;18.73;;;17.23;;
8964;SDS011;4517;49.020;12.066;2023-11-18T13:37:48;19.73;;;18.03;;
8964;SDS011;4517;49.020;12.066;2023-11-18T13:40:15;19.00;;;17.40;;
8964;SDS011;4517;49.020;12.066;2023-11-18T13:42:43;20.63;;;18.80;;
8964;SDS011;4517;49.020;12.066;2023-11-18T13:45:11;21.70;;;19.60;;
8964;SDS011;4517;49.020;12.066;2023-11-18T13:47:49;18.00;;;16.50;;
8964;SDS011;4517;49.020;12.066;2023-11-18T13:50:16;21.33;;;19.57;;
8964;SDS011;4517;49.020;12.066;2023-11-18T13:52:42;20.10;;;18.40;;
8964;SDS011;4517;49.020;12.066;2023-11-18T13:55:08;18.77;;;17.30;;
8964;SDS011;4517;49.020;12.066;2023-11-18T13:57:41;18.97;;;17.33;;
8964;SDS011;4517;49.020;12.066;2023-11-18T14:00:07;20.83;;;18.90;;
8964;SDS011;4517;49.020;12.066;2023-11-18T14:02:40;19.60;;;17.63;;
8964;SDS011;4517;49.020;12.066;2023-11-18T14:05:14;21.03;;;18.93;;
8964;SDS011;4517;49.020;12.066;2023-11-18T14:07:41;22.00;;;20.13;;
8964;SDS011;4517;49.020;12.066;2023-11-18T14:10:08;20.13;;;18.10;;
8964;SDS011;4517;49.020;12.066;2023-11-18T14:12:38;20.80;;;18.97;;
8964;SDS011;4517;49.020;12.066;2023-11-18T14:15:04;19.47;;;17.80;;
8964;SDS011;4517;49.020;12.066;2023-11-18T14:17:30;21.10;;;18.97;;
8964;SDS011;4517;49.020;12.066;2023-11-18T14:19:56;20.67;;;18.70;;
8964;SDS011;4517;49.020;12.066;2023-11-18T14:22:23;21.17;;;19.20;;
8964;SDS011;4517;49.020;12.066;2023-11-18T14:24:49;20.80;;;18.90;;
8964;SDS011;4517;49.020;12.066;2023-11-18T14:27:15;19.90;;;18.17;;
8964;SDS011;4517;49.020;12.066;2023-11-18T14:29:41;19.53;;;17.83;;
8964;SDS011;4517;49.020;12.066;2023-11-18T14:32:07;20.10;;;18.10;;
8964;SDS011;4517;49.020;12.066;2023-11-18T14:34:33;21.83;;;19.93;;
8964;SDS011;4517;49.020;12.066;2023-11-18T14:36:59;20.10;;;18.23;;
8964;SDS011;4517;49.020;12.066;2023-11-18T14:39:26;19.87;;;18.10;;
8964;SDS011;4517;49.020;12.066;2023-11-18T14:41:52;20.53;;;18.53;;
8964;SDS011;4517;49.020;12.066;2023-11-18T14:44:18;19.27;;;17.57;;
8964;SDS011;4517;49.020;12.066;2023-11-18T14:46:45;21.67;;;17.40;;
8964;SDS011;4517;49.020;12.066;2023-11-18T14:49:12;21.37;;;19.20;;
8964;SDS011;4517;49.020;12.066;2023-11-18T14:51:38;20.30;;;18.40;;